Главная страница
METAR-TAF:

METAR-TAF

Аэропорты :

Пуант-а-Питр, Гваделупа

широта: 16-16N, долгота: 061-31W, высота над уровнем моря: 11 м

Текущие метеонаблюдения

Эта сводка был подготовлена 31 минут назад, в 07:30 UTC
Штиль
Температура 22°C
Влажность 88%
Давление 1015 hPa
Видимость 10 км и более
Нет облачности ниже 1500 м, и нет кучево-дождевой облачности

METAR: TFFR 140730Z AUTO 00000KT CAVOK 22/20 Q1015 NOSIG

Время: 04:01 (08:01 UTC)

Прогноз

Эта сводка был подготовлена 3 часа и 1 минут назад, в 05:00 UTC
Прогноз действительный с 14-го 06 UTC до 15-го 06 UTC
Ветер 3 Узел переменных направлений
Видимость 10 км и более
Отдельные облака на высоте 3000 фута
изменения
С 14-го 11 UTC до 14-го 13 UTC
Ветер 8 Узел от восточно-юго-восточный
Вероятность 30% :
временами
С 14-го 15 UTC до 15-го 06 UTC
Видимость: 4000 м
Отдельные облака на высоте 1500 фута, мощно-кучевые.
ливневые дожди

TAF: TFFR 140500Z 1406/1506 VRB03KT 9999 SCT030 BECMG 1411/1413 11008KT PROB30 TEMPO 1415/1506 4000 SHRA SCT015TCU

Метеонаблюдения и прогнозы для более 4000 аэропортов (сводки METAR и TAF).

Имеющиеся станции представлены на карте желтыми и красными точками.

Чтобы увидеть название станции, наведите на нее мышь.

Затем щелкните, чтобы увидеть метеонаблюдения и метеопрогнозы.

Управление картой: чтобы увеличить масштаб, щелкните зеленые кнопки с черным крестиком; чтобы уменьшить масштаб, щелкните зеленую кнопку с тире; для просмотра соседних карт щелкайте зеленые стрелки.


METAR-TAF: